Time;durP1;ratioP1;P1;durP2;ratioP2;P2;SDS_P1;SDS_P2;PMS_P1;PMS_P2;Temp;Humidity;BMP_temperature;BMP_pressure;BME280_temperature;BME280_humidity;BME280_pressure;Samples;Min_cycle;Max_cycle;Signal;HPM_P1;HPM_P2
2023/03/09 00:02:13;;;;;;;22.37;12.23;;;1.20;99.90;;;;;;5030249;28;20061;-73
2023/03/09 00:04:39;;;;;;;19.97;11.60;;;1.20;99.90;;;;;;5022725;28;20041;-72
2023/03/09 00:07:04;;;;;;;22.73;12.38;;;1.20;99.90;;;;;;5042619;28;20069;-72
2023/03/09 00:09:30;;;;;;;25.83;13.67;;;1.10;99.90;;;;;;5026151;28;20153;-72
2023/03/09 00:11:58;;;;;;;25.90;12.38;;;1.10;99.90;;;;;;5060200;28;20061;-72
2023/03/09 00:14:24;;;;;;;23.27;12.43;;;1.10;99.90;;;;;;5022624;28;20054;-72
2023/03/09 00:16:51;;;;;;;24.60;13.00;;;1.10;99.90;;;;;;5030083;28;20052;-72
2023/03/09 00:19:20;;;;;;;23.38;12.93;;;1.10;99.90;;;;;;5012233;28;20052;-72
2023/03/09 00:21:52;;;;;;;;;;;1.10;99.90;;;;;;5001060;28;20072;-72
2023/03/09 00:24:28;;;;;;;25.13;13.65;;;1.10;99.90;;;;;;5041486;28;19920;-72
2023/03/09 00:27:01;;;;;;;27.80;14.60;;;1.00;99.90;;;;;;5023278;28;20096;-72
2023/03/09 00:29:28;;;;;;;25.02;13.23;;;1.00;99.90;;;;;;5038354;28;20041;-72
2023/03/09 00:31:55;;;;;;;27.98;14.30;;;1.00;99.90;;;;;;5047249;28;20694;-72
2023/03/09 00:34:21;;;;;;;28.42;15.23;;;1.00;99.90;;;;;;5038020;28;20076;-72
2023/03/09 00:36:48;;;;;;;31.80;15.77;;;0.90;99.90;;;;;;5020713;28;20051;-72
2023/03/09 00:39:15;;;;;;;27.25;15.07;;;0.90;99.90;;;;;;5019674;28;20094;-72
2023/03/09 00:41:47;;;;;;;30.90;15.15;;;0.90;99.90;;;;;;5006554;28;20037;-72
2023/03/09 00:44:13;;;;;;;29.47;14.97;;;0.90;99.90;;;;;;5020531;28;20120;-72
2023/03/09 00:46:40;;;;;;;27.92;15.25;;;0.80;99.90;;;;;;5029468;28;20037;-72
2023/03/09 00:49:06;;;;;;;26.52;13.90;;;0.70;99.90;;;;;;5031107;28;20045;-71
2023/03/09 00:51:36;;;;;;;27.90;14.75;;;0.70;99.90;;;;;;5020765;28;20032;-71
2023/03/09 00:54:02;;;;;;;27.25;14.93;;;0.60;99.90;;;;;;5041512;28;20051;-72
2023/03/09 00:56:29;;;;;;;26.27;13.88;;;0.50;99.90;;;;;;5012457;28;20103;-72
2023/03/09 00:59:01;;;;;;;25.65;13.35;;;0.40;99.90;;;;;;5014497;28;20048;-72
2023/03/09 01:01:27;;;;;;;23.43;13.20;;;0.40;99.90;;;;;;5008729;28;20473;-72
2023/03/09 01:03:53;;;;;;;26.20;13.48;;;0.30;99.90;;;;;;5005835;28;20045;-71
2023/03/09 01:06:19;;;;;;;21.45;11.27;;;0.30;99.90;;;;;;5025215;28;20366;-71
2023/03/09 01:08:45;;;;;;;21.02;11.43;;;0.30;99.90;;;;;;5041962;28;20041;-71
2023/03/09 01:11:14;;;;;;;24.60;11.67;;;0.20;99.90;;;;;;5035494;28;20049;-71
2023/03/09 01:13:41;;;;;;;26.05;11.90;;;0.20;99.90;;;;;;5023261;28;20072;-71
2023/03/09 01:16:09;;;;;;;22.88;11.77;;;0.10;99.90;;;;;;5040059;28;20044;-71
2023/03/09 01:18:35;;;;;;;22.13;11.50;;;0.10;99.90;;;;;;5038226;28;20037;-71
2023/03/09 01:21:00;;;;;;;23.23;11.90;;;0.00;99.90;;;;;;5007775;28;20550;-71
2023/03/09 01:23:27;;;;;;;22.07;12.73;;;0.00;99.90;;;;;;5041379;28;20041;-71
2023/03/09 01:25:53;;;;;;;22.65;11.75;;;0.00;99.90;;;;;;5001008;28;20500;-71
2023/03/09 01:28:19;;;;;;;24.25;13.13;;;0.00;99.90;;;;;;4991910;28;20037;-71
2023/03/09 01:30:45;;;;;;;21.57;11.87;;;0.00;99.90;;;;;;5021674;28;20042;-71
2023/03/09 01:33:10;;;;;;;23.97;12.37;;;-0.10;99.90;;;;;;4992146;28;20119;-71
2023/03/09 01:35:38;;;;;;;21.83;11.63;;;-0.10;99.90;;;;;;5010911;28;20211;-71
2023/03/09 01:38:04;;;;;;;21.52;12.10;;;-0.20;99.90;;;;;;5033064;28;20049;-71
2023/03/09 01:40:30;;;;;;;22.73;11.60;;;-0.20;99.90;;;;;;5026417;28;20048;-71
2023/03/09 01:42:58;;;;;;;25.37;11.93;;;-0.20;99.90;;;;;;5014214;28;20041;-71
2023/03/09 01:45:30;;;;;;;24.58;11.63;;;-0.30;99.90;;;;;;5015323;28;20033;-71
2023/03/09 01:48:00;;;;;;;24.20;12.82;;;-0.30;99.90;;;;;;5005489;28;20077;-71
2023/03/09 01:50:30;;;;;;;21.08;12.05;;;-0.30;99.90;;;;;;5030065;28;20037;-71
2023/03/09 01:53:00;;;;;;;23.15;12.15;;;-0.30;99.90;;;;;;5013275;28;20037;-72
2023/03/09 01:55:31;;;;;;;22.15;11.88;;;-0.30;99.90;;;;;;5020413;28;20136;-72
2023/03/09 01:58:12;;;;;;;25.27;11.70;;;-0.30;99.90;;;;;;5026757;28;20117;-72
2023/03/09 02:00:42;;;;;;;26.88;12.80;;;-0.30;99.90;;;;;;5025153;28;20060;-72
2023/03/09 02:03:21;;;;;;;21.65;11.73;;;-0.20;99.90;;;;;;5037105;28;20101;-72
2023/03/09 02:06:00;;;;;;;25.15;12.02;;;-0.20;99.90;;;;;;5031341;28;20117;-72
2023/03/09 02:08:28;;;;;;;24.58;11.55;;;-0.10;99.90;;;;;;5022490;28;20592;-72
2023/03/09 02:11:11;;;;;;;22.92;12.13;;;-0.20;99.90;;;;;;5011590;28;20088;-72
2023/03/09 02:13:42;;;;;;;20.30;11.40;;;-0.20;99.90;;;;;;5037631;28;20056;-72
2023/03/09 02:16:08;;;;;;;20.38;11.75;;;-0.20;99.90;;;;;;5021239;28;20547;-72
2023/03/09 02:18:34;;;;;;;22.88;12.43;;;-0.20;99.90;;;;;;5031485;28;20045;-72
2023/03/09 02:21:03;;;;;;;22.55;12.07;;;-0.10;99.90;;;;;;5018972;28;20041;-72
2023/03/09 02:23:55;;;;;;;20.00;10.73;;;-0.10;99.90;;;;;;5021856;28;20045;-72
2023/03/09 02:26:23;;;;;;;21.08;11.50;;;-0.10;99.90;;;;;;5024549;28;20120;-72
2023/03/09 02:28:49;;;;;;;23.27;11.25;;;-0.10;99.90;;;;;;5039772;28;20075;-71
2023/03/09 02:31:20;;;;;;;20.30;11.10;;;-0.10;99.90;;;;;;5040609;28;20049;-71
2023/03/09 02:33:46;;;;;;;18.77;10.43;;;-0.10;99.90;;;;;;5037174;28;20129;-72
2023/03/09 02:36:12;;;;;;;21.47;11.03;;;0.00;99.90;;;;;;5012649;28;20096;-72
2023/03/09 02:38:38;;;;;;;21.73;10.98;;;-0.10;99.90;;;;;;5015679;28;20057;-72
2023/03/09 02:41:09;;;;;;;24.47;11.33;;;-0.10;99.90;;;;;;5005297;28;20085;-72
2023/03/09 02:43:43;;;;;;;19.92;10.73;;;-0.10;99.90;;;;;;5023002;28;20040;-72
2023/03/09 02:46:09;;;;;;;19.67;9.85;;;-0.10;99.90;;;;;;5015955;28;20080;-70
2023/03/09 02:48:35;;;;;;;18.70;9.90;;;-0.10;99.90;;;;;;5006783;28;20059;-70
2023/03/09 02:51:01;;;;;;;19.60;10.13;;;-0.10;99.90;;;;;;5039663;28;20049;-70
2023/03/09 02:53:27;;;;;;;20.35;10.77;;;-0.10;99.90;;;;;;5039422;28;20045;-70
2023/03/09 02:55:53;;;;;;;19.17;10.27;;;-0.10;99.90;;;;;;5034250;28;20490;-70
2023/03/09 02:58:18;;;;;;;23.90;11.60;;;-0.10;99.90;;;;;;5027174;28;20493;-69
2023/03/09 03:00:44;;;;;;;18.13;10.20;;;0.00;99.90;;;;;;5010558;28;20140;-69
2023/03/09 03:03:10;;;;;;;18.43;10.03;;;0.00;99.90;;;;;;5040195;28;20519;-69
2023/03/09 03:05:35;;;;;;;19.60;10.07;;;-0.10;99.90;;;;;;5039565;28;20055;-70
2023/03/09 03:08:01;;;;;;;20.30;10.00;;;0.00;99.90;;;;;;5022649;28;20037;-70
2023/03/09 03:10:27;;;;;;;21.30;10.63;;;-0.10;99.90;;;;;;5033046;28;20107;-69
2023/03/09 03:12:53;;;;;;;18.73;9.87;;;-0.10;99.90;;;;;;5038903;28;20049;-69
2023/03/09 03:15:18;;;;;;;20.50;10.40;;;0.00;99.90;;;;;;5032635;28;20064;-69
2023/03/09 03:17:44;;;;;;;20.33;10.60;;;0.00;99.90;;;;;;5019716;28;20083;-70
2023/03/09 03:20:14;;;;;;;22.00;11.20;;;0.00;99.90;;;;;;5025354;28;20105;-71
2023/03/09 03:22:41;;;;;;;22.98;11.93;;;0.00;99.90;;;;;;5043489;28;20041;-70
2023/03/09 03:25:07;;;;;;;23.98;11.38;;;0.00;99.90;;;;;;4994034;28;20070;-70
2023/03/09 03:27:33;;;;;;;21.95;11.02;;;0.00;99.90;;;;;;5009893;28;20045;-70
2023/03/09 03:30:00;;;;;;;20.83;11.53;;;0.00;99.90;;;;;;5030294;28;20048;-70
2023/03/09 03:32:26;;;;;;;23.77;11.48;;;0.00;99.90;;;;;;5007014;28;20044;-70
2023/03/09 03:34:52;;;;;;;23.77;11.75;;;0.00;99.90;;;;;;5030516;28;20048;-70
2023/03/09 03:37:18;;;;;;;20.00;10.97;;;0.00;99.90;;;;;;5025503;28;20132;-71
2023/03/09 03:39:43;;;;;;;19.27;11.13;;;0.00;99.90;;;;;;5015582;28;20048;-71
2023/03/09 03:42:09;;;;;;;22.50;11.77;;;-0.10;99.90;;;;;;5026441;28;20044;-70
2023/03/09 03:44:35;;;;;;;21.67;11.43;;;0.00;99.90;;;;;;5021132;28;20051;-70
2023/03/09 03:47:01;;;;;;;22.80;11.33;;;0.00;99.90;;;;;;4997253;28;20042;-70
2023/03/09 03:49:27;;;;;;;23.23;11.68;;;0.00;99.90;;;;;;5042740;28;20047;-70
2023/03/09 03:51:53;;;;;;;24.30;12.05;;;0.00;99.90;;;;;;5040230;28;20141;-70
2023/03/09 03:54:19;;;;;;;26.70;12.50;;;0.00;99.90;;;;;;5014104;28;20478;-70
2023/03/09 03:56:44;;;;;;;25.57;12.30;;;0.10;99.90;;;;;;5006207;28;20046;-70
2023/03/09 03:59:10;;;;;;;21.27;11.67;;;0.10;99.90;;;;;;5026075;28;20084;-70
2023/03/09 04:01:36;;;;;;;25.17;12.57;;;0.10;99.90;;;;;;5030997;28;20545;-70
2023/03/09 04:04:03;;;;;;;23.37;12.50;;;0.10;99.90;;;;;;5059447;28;20040;-70
2023/03/09 04:06:30;;;;;;;21.60;12.02;;;0.10;99.90;;;;;;5026433;28;20076;-70
2023/03/09 04:08:56;;;;;;;21.60;11.82;;;0.10;99.90;;;;;;5026195;28;20045;-70
2023/03/09 04:11:21;;;;;;;20.27;11.60;;;0.10;99.90;;;;;;5059184;28;20068;-70
2023/03/09 04:13:49;;;;;;;22.73;11.67;;;0.10;99.90;;;;;;5024519;28;20040;-70
2023/03/09 04:16:16;;;;;;;23.13;11.68;;;0.00;99.90;;;;;;5025621;28;20041;-70
2023/03/09 04:18:42;;;;;;;22.85;12.23;;;0.00;99.90;;;;;;5039326;28;20044;-70
2023/03/09 04:21:08;;;;;;;22.63;12.20;;;0.10;99.90;;;;;;5057006;28;20045;-70
2023/03/09 04:23:34;;;;;;;21.07;11.53;;;0.00;99.90;;;;;;5029052;28;20111;-70
2023/03/09 04:26:01;;;;;;;20.97;11.77;;;0.00;99.90;;;;;;5026354;28;20037;-70
2023/03/09 04:28:27;;;;;;;24.27;11.75;;;0.00;99.90;;;;;;5025081;28;20041;-70
2023/03/09 04:30:54;;;;;;;24.87;12.90;;;-0.10;99.90;;;;;;5010973;28;20041;-70
2023/03/09 04:33:20;;;;;;;22.27;11.57;;;-0.10;99.90;;;;;;5041691;28;20280;-70
2023/03/09 04:35:46;;;;;;;25.05;12.40;;;-0.10;99.90;;;;;;5036240;28;20036;-70
2023/03/09 04:38:12;;;;;;;23.58;12.80;;;-0.10;99.90;;;;;;5011538;28;20034;-70
2023/03/09 04:40:38;;;;;;;23.87;11.97;;;-0.10;99.90;;;;;;5006526;28;20091;-70
2023/03/09 04:43:04;;;;;;;25.43;12.97;;;-0.10;99.90;;;;;;5006537;28;20053;-70
2023/03/09 04:45:30;;;;;;;24.23;12.38;;;-0.10;99.90;;;;;;5041993;28;20295;-70
2023/03/09 04:47:56;;;;;;;26.80;13.50;;;-0.10;99.90;;;;;;5034372;28;20048;-70
2023/03/09 04:50:22;;;;;;;27.25;13.95;;;-0.10;99.90;;;;;;5032506;28;20095;-70
2023/03/09 04:52:49;;;;;;;28.65;14.98;;;-0.10;99.90;;;;;;5041337;28;20164;-70
2023/03/09 04:55:16;;;;;;;25.92;13.85;;;-0.10;99.90;;;;;;5007571;28;20045;-70
2023/03/09 04:57:42;;;;;;;29.30;14.32;;;-0.10;99.90;;;;;;5026761;28;20037;-70
2023/03/09 05:00:10;;;;;;;31.07;14.37;;;-0.10;99.90;;;;;;5027668;28;20485;-70
2023/03/09 05:02:40;;;;;;;31.35;15.38;;;0.00;99.90;;;;;;5051804;28;20041;-70
2023/03/09 05:05:09;;;;;;;29.92;15.20;;;-0.10;99.90;;;;;;5023822;28;20043;-70
2023/03/09 05:07:35;;;;;;;29.65;13.70;;;-0.10;99.90;;;;;;5025365;28;20096;-70
2023/03/09 05:10:01;;;;;;;32.55;16.67;;;-0.10;99.90;;;;;;5041689;28;20054;-70
2023/03/09 05:12:31;;;;;;;31.47;15.47;;;-0.10;99.90;;;;;;5023686;28;20052;-70
2023/03/09 05:15:00;;;;;;;30.77;14.52;;;-0.10;99.90;;;;;;5026141;28;20090;-70
2023/03/09 05:17:27;;;;;;;27.98;13.90;;;-0.10;99.90;;;;;;5026708;28;20052;-70
2023/03/09 05:19:54;;;;;;;30.20;15.30;;;-0.20;99.90;;;;;;5043171;28;20044;-70
2023/03/09 05:22:25;;;;;;;29.13;15.15;;;-0.20;99.90;;;;;;5022702;28;20080;-70
2023/03/09 05:24:51;;;;;;;29.20;14.13;;;-0.20;99.90;;;;;;5015897;28;20041;-70
2023/03/09 05:27:16;;;;;;;30.47;14.47;;;-0.20;99.90;;;;;;5012531;28;20036;-71
2023/03/09 05:29:43;;;;;;;29.33;14.23;;;-0.20;99.90;;;;;;5042966;28;20080;-70
2023/03/09 05:32:09;;;;;;;29.80;13.80;;;-0.20;99.90;;;;;;5022235;28;20041;-70
2023/03/09 05:34:35;;;;;;;30.30;15.90;;;-0.20;99.90;;;;;;5025632;28;20048;-70
2023/03/09 05:37:01;;;;;;;30.17;14.40;;;-0.20;99.90;;;;;;5001916;28;20045;-70
2023/03/09 05:39:27;;;;;;;32.13;15.37;;;-0.20;99.90;;;;;;5008615;28;20128;-70
2023/03/09 05:41:53;;;;;;;34.17;15.93;;;-0.20;99.90;;;;;;5021206;28;20454;-70
2023/03/09 05:44:19;;;;;;;28.90;14.70;;;-0.20;99.90;;;;;;5015419;28;20053;-70
2023/03/09 05:46:45;;;;;;;29.90;15.30;;;-0.20;99.90;;;;;;5024693;28;20049;-70
2023/03/09 05:49:11;;;;;;;31.17;16.03;;;-0.10;99.90;;;;;;5045464;28;20101;-70
2023/03/09 05:51:37;;;;;;;32.93;14.57;;;-0.10;99.90;;;;;;5013719;28;20382;-70
2023/03/09 05:54:03;;;;;;;32.10;15.73;;;-0.10;99.90;;;;;;5021367;28;20041;-70
2023/03/09 05:56:28;;;;;;;31.67;14.87;;;-0.10;99.90;;;;;;5005147;28;20107;-70
2023/03/09 05:59:03;;;;;;;32.28;15.20;;;-0.10;99.90;;;;;;5022974;28;20108;-70
2023/03/09 06:01:29;;;;;;;30.40;15.53;;;-0.10;99.90;;;;;;5006151;28;20148;-70
2023/03/09 06:03:56;;;;;;;28.87;14.93;;;-0.10;99.90;;;;;;5015316;28;20120;-70
2023/03/09 06:06:25;;;;;;;32.08;15.40;;;-0.10;99.90;;;;;;5011165;28;20291;-70
2023/03/09 06:08:51;;;;;;;35.90;16.92;;;0.00;99.90;;;;;;5007389;28;20121;-70
2023/03/09 06:11:17;;;;;;;30.85;16.20;;;0.00;99.90;;;;;;5010881;28;20489;-70
2023/03/09 06:13:45;;;;;;;30.40;15.35;;;0.00;99.90;;;;;;5039723;28;20480;-70
2023/03/09 06:16:14;;;;;;;30.42;15.05;;;0.00;99.90;;;;;;5020602;28;20072;-70
2023/03/09 06:18:40;;;;;;;29.85;14.85;;;-0.10;99.90;;;;;;5028880;28;20101;-70
2023/03/09 06:21:13;;;;;;;30.38;15.55;;;-0.10;99.90;;;;;;5024829;28;20057;-70
2023/03/09 06:23:39;;;;;;;29.40;15.48;;;-0.10;99.90;;;;;;5021325;28;20076;-70
2023/03/09 06:26:07;;;;;;;34.65;17.40;;;-0.10;99.90;;;;;;5040406;28;20037;-70
2023/03/09 06:28:34;;;;;;;29.17;14.48;;;-0.10;99.90;;;;;;5023365;28;20037;-70
2023/03/09 06:31:04;;;;;;;30.58;14.93;;;-0.10;99.90;;;;;;5040933;28;20055;-70
2023/03/09 06:33:30;;;;;;;28.75;15.25;;;-0.20;99.90;;;;;;5033973;28;20041;-70
2023/03/09 06:35:56;;;;;;;27.60;15.60;;;-0.20;99.90;;;;;;5021688;28;20037;-70
2023/03/09 06:38:24;;;;;;;28.53;14.50;;;-0.20;99.90;;;;;;5008139;28;20038;-70
2023/03/09 06:40:54;;;;;;;30.48;15.93;;;-0.20;99.90;;;;;;5041238;28;20040;-70
2023/03/09 06:43:21;;;;;;;29.63;14.82;;;-0.30;99.90;;;;;;5010958;28;20072;-70
2023/03/09 06:45:47;;;;;;;29.83;15.00;;;-0.20;99.90;;;;;;5004909;28;20124;-70
2023/03/09 06:48:13;;;;;;;30.40;15.48;;;-0.30;99.90;;;;;;5017185;28;20040;-70
2023/03/09 06:50:39;;;;;;;35.17;16.17;;;-0.30;99.90;;;;;;5040769;28;20508;-70
2023/03/09 06:53:05;;;;;;;30.70;15.40;;;-0.30;99.90;;;;;;5041096;28;20096;-70
2023/03/09 06:55:30;;;;;;;28.97;14.90;;;-0.30;99.90;;;;;;5026096;28;20045;-70
2023/03/09 06:57:56;;;;;;;31.23;14.67;;;-0.30;99.90;;;;;;5041061;28;20049;-70
2023/03/09 07:00:22;;;;;;;31.40;15.60;;;-0.30;99.90;;;;;;5032624;28;20072;-70
2023/03/09 07:02:48;;;;;;;29.83;15.37;;;-0.20;99.90;;;;;;5054644;28;20718;-70
2023/03/09 07:05:20;;;;;;;30.02;16.23;;;-0.20;99.90;;;;;;5033785;28;20041;-70
2023/03/09 07:07:45;;;;;;;30.50;15.17;;;-0.20;99.90;;;;;;5020989;28;20053;-70
2023/03/09 07:10:12;;;;;;;30.93;15.77;;;-0.10;99.90;;;;;;5005566;28;20050;-70
2023/03/09 07:12:40;;;;;;;29.60;15.00;;;-0.10;99.90;;;;;;5019833;28;20081;-70
2023/03/09 07:15:07;;;;;;;29.00;15.30;;;0.00;99.90;;;;;;5013966;28;20050;-70
2023/03/09 07:17:33;;;;;;;28.38;15.23;;;0.10;99.90;;;;;;5029413;28;20057;-70
2023/03/09 07:19:59;;;;;;;31.17;15.45;;;0.10;99.90;;;;;;5003061;28;20046;-70
2023/03/09 07:22:25;;;;;;;28.37;15.10;;;0.20;99.90;;;;;;5019897;28;20387;-70
2023/03/09 07:24:51;;;;;;;31.30;15.30;;;0.20;99.90;;;;;;5014235;28;20038;-70
2023/03/09 07:27:20;;;;;;;30.47;14.23;;;0.30;99.90;;;;;;5020793;28;20505;-70
2023/03/09 07:29:46;;;;;;;29.40;15.30;;;0.40;99.90;;;;;;5021361;28;20101;-70
2023/03/09 07:32:12;;;;;;;30.65;16.40;;;0.50;99.90;;;;;;5009485;28;20038;-70
2023/03/09 07:34:37;;;;;;;28.77;15.83;;;0.70;99.90;;;;;;5019754;28;20517;-70
2023/03/09 07:37:04;;;;;;;26.27;14.07;;;0.80;99.90;;;;;;5020710;28;20077;-70
2023/03/09 07:39:30;;;;;;;27.98;13.85;;;0.90;99.90;;;;;;5015819;28;20136;-70
2023/03/09 07:41:56;;;;;;;26.25;14.40;;;1.00;99.90;;;;;;4989731;28;20088;-70
2023/03/09 07:44:22;;;;;;;26.80;13.90;;;1.00;99.90;;;;;;5003271;28;20061;-70
2023/03/09 07:46:47;;;;;;;26.27;13.87;;;1.10;99.90;;;;;;5002933;28;20045;-70
2023/03/09 07:49:13;;;;;;;26.20;13.50;;;1.10;99.90;;;;;;4988566;28;20038;-70
2023/03/09 07:51:45;;;;;;;26.05;14.07;;;1.20;99.90;;;;;;4987750;28;20042;-70
2023/03/09 07:54:11;;;;;;;25.40;14.13;;;1.20;99.90;;;;;;4968590;28;20042;-70
2023/03/09 07:56:37;;;;;;;26.63;14.00;;;1.30;99.90;;;;;;5002637;28;20045;-70
2023/03/09 07:59:03;;;;;;;24.37;13.07;;;1.40;99.90;;;;;;5006400;28;20049;-70
2023/03/09 08:01:30;;;;;;;24.48;14.02;;;1.40;99.90;;;;;;4985720;28;20132;-70
2023/03/09 08:03:56;;;;;;;26.77;13.57;;;1.50;99.90;;;;;;4990484;28;20038;-70
2023/03/09 08:06:22;;;;;;;25.30;13.65;;;1.50;99.90;;;;;;4984347;28;20097;-70
2023/03/09 08:08:48;;;;;;;22.52;12.85;;;1.60;99.90;;;;;;4970441;28;20084;-70
2023/03/09 08:11:14;;;;;;;22.27;12.37;;;1.70;99.90;;;;;;5010546;28;20093;-70
2023/03/09 08:13:40;;;;;;;22.13;12.97;;;1.80;99.90;;;;;;5025486;28;20075;-70
2023/03/09 08:16:08;;;;;;;20.70;12.63;;;1.80;99.90;;;;;;5008064;28;20041;-71
2023/03/09 08:18:35;;;;;;;21.63;12.38;;;1.80;99.90;;;;;;5017795;28;20375;-71
2023/03/09 08:21:09;;;;;;;23.00;12.45;;;1.90;99.90;;;;;;5022863;28;20072;-71
2023/03/09 08:23:41;;;;;;;21.85;12.02;;;1.80;99.90;;;;;;5038027;28;20052;-71
2023/03/09 08:26:08;;;;;;;20.88;12.07;;;1.80;99.90;;;;;;5041860;28;20052;-70
2023/03/09 08:28:43;;;;;;;19.70;11.85;;;1.80;99.90;;;;;;5029771;28;20562;-73
2023/03/09 08:31:11;;;;;;;21.10;12.30;;;1.80;99.90;;;;;;5013783;28;20127;-73
2023/03/09 08:33:38;;;;;;;20.33;12.10;;;1.80;99.90;;;;;;5025966;28;20068;-73
2023/03/09 08:36:17;;;;;;;23.02;13.05;;;1.70;99.90;;;;;;5030425;28;20044;-73
2023/03/09 08:38:45;;;;;;;21.25;12.23;;;1.80;99.90;;;;;;5012445;28;20497;-73
2023/03/09 08:41:12;;;;;;;20.65;11.63;;;1.80;99.90;;;;;;5040622;28;20486;-72
2023/03/09 08:43:38;;;;;;;21.35;12.35;;;1.90;99.90;;;;;;5034338;28;20052;-73
2023/03/09 08:46:04;;;;;;;19.65;12.35;;;1.90;99.90;;;;;;5023364;28;20049;-73
2023/03/09 08:48:36;;;;;;;19.75;12.00;;;1.90;99.90;;;;;;5046167;28;20060;-73
2023/03/09 08:51:05;;;;;;;16.60;11.00;;;2.00;99.90;;;;;;5028947;28;20046;-73
2023/03/09 08:53:32;;;;;;;21.08;10.90;;;2.10;99.90;;;;;;5038860;28;20077;-73
2023/03/09 08:56:01;;;;;;;20.08;11.77;;;2.20;99.90;;;;;;5017966;28;20064;-73
2023/03/09 08:58:27;;;;;;;19.33;11.20;;;2.20;99.90;;;;;;5032452;28;20397;-73
2023/03/09 09:00:54;;;;;;;20.07;11.33;;;2.40;99.90;;;;;;5031166;28;20037;-73
2023/03/09 09:03:19;;;;;;;21.85;11.25;;;2.50;99.90;;;;;;5024280;28;20043;-73
2023/03/09 09:05:45;;;;;;;18.97;11.50;;;2.60;99.90;;;;;;5018819;28;20076;-73
2023/03/09 09:08:11;;;;;;;19.13;10.60;;;2.70;99.90;;;;;;5024069;28;20045;-73
2023/03/09 09:10:42;;;;;;;23.50;11.73;;;2.80;99.90;;;;;;5003133;28;20053;-73
2023/03/09 09:13:09;;;;;;;19.00;10.77;;;2.90;99.90;;;;;;5054092;28;20268;-72
2023/03/09 09:15:37;;;;;;;17.48;10.40;;;2.90;99.90;;;;;;5044541;28;20049;-72
2023/03/09 09:18:03;;;;;;;19.35;11.50;;;2.90;99.90;;;;;;5023109;28;20045;-72
2023/03/09 09:20:29;;;;;;;18.80;10.90;;;2.90;99.90;;;;;;5036551;28;20044;-72
2023/03/09 09:22:56;;;;;;;17.90;10.57;;;2.90;99.90;;;;;;5035817;28;20493;-72
2023/03/09 09:25:26;;;;;;;14.63;9.07;;;3.00;99.90;;;;;;5045956;28;20040;-72
2023/03/09 09:27:52;;;;;;;16.17;9.70;;;3.00;99.90;;;;;;5033346;28;20033;-74
2023/03/09 09:30:19;;;;;;;15.83;10.00;;;3.10;99.90;;;;;;4994895;28;20048;-73
2023/03/09 09:32:45;;;;;;;15.90;10.40;;;3.20;99.90;;;;;;5027061;28;20435;-72
2023/03/09 09:35:11;;;;;;;17.67;10.37;;;3.30;99.90;;;;;;5043699;28;20069;-73
2023/03/09 09:37:40;;;;;;;17.00;10.00;;;3.40;99.90;;;;;;5040466;28;20127;-73
2023/03/09 09:40:14;;;;;;;13.52;9.05;;;3.50;99.90;;;;;;5033484;28;20104;-73
2023/03/09 09:42:43;;;;;;;16.40;9.82;;;3.60;99.90;;;;;;5027310;28;20120;-72
2023/03/09 09:45:31;;;;;;;16.42;10.15;;;3.60;99.90;;;;;;5013550;28;20033;-73
2023/03/09 09:48:02;;;;;;;13.13;8.52;;;3.70;99.90;;;;;;5052985;28;20049;-73
2023/03/09 09:51:01;;;;;;;14.93;9.48;;;3.70;99.90;;;;;;5037099;28;20197;-73
2023/03/09 09:53:40;;;;;;;13.77;8.75;;;3.80;99.90;;;;;;5010757;28;20049;-73
2023/03/09 09:56:11;;;;;;;13.32;9.00;;;3.90;99.90;;;;;;5017724;28;20045;-73
2023/03/09 09:58:47;;;;;;;13.80;9.07;;;4.00;99.90;;;;;;5024769;28;20059;-73
2023/03/09 10:01:51;;;;;;;14.27;9.02;;;4.10;99.90;;;;;;5028935;28;20051;-73
2023/03/09 10:04:43;;;;;;;12.27;7.85;;;4.10;99.90;;;;;;5011046;28;20040;-73
2023/03/09 10:07:19;;;;;;;15.88;8.45;;;4.10;99.90;;;;;;5026306;28;20045;-72
2023/03/09 10:10:03;;;;;;;11.10;7.18;;;4.00;99.90;;;;;;5008399;28;20037;-73
2023/03/09 10:12:29;;;;;;;12.55;8.02;;;4.00;99.90;;;;;;5021526;28;20053;-72
2023/03/09 10:15:11;;;;;;;11.02;7.93;;;3.90;99.90;;;;;;5027623;28;20054;-72
2023/03/09 10:17:45;;;;;;;11.38;7.78;;;3.90;99.90;;;;;;5028403;28;20041;-72
2023/03/09 10:20:27;;;;;;;10.73;7.28;;;4.00;99.90;;;;;;5023336;28;20052;-72
2023/03/09 10:22:55;;;;;;;11.82;7.97;;;4.10;99.90;;;;;;5020662;28;20041;-72
2023/03/09 10:25:24;;;;;;;11.95;8.10;;;4.20;99.90;;;;;;5024897;28;20473;-72
2023/03/09 10:27:59;;;;;;;12.20;8.13;;;4.30;99.90;;;;;;5037277;28;20076;-72
2023/03/09 10:30:47;;;;;;;11.88;7.68;;;4.50;99.90;;;;;;5028243;28;20100;-72
2023/03/09 10:33:37;;;;;;;13.52;7.07;;;4.70;99.90;;;;;;5016200;28;20094;-72
2023/03/09 10:36:08;;;;;;;12.60;7.50;;;4.90;99.90;;;;;;5035984;28;20075;-72
2023/03/09 10:38:38;;;;;;;13.27;8.15;;;5.00;99.90;;;;;;5025907;28;20029;-72
2023/03/09 10:41:10;;;;;;;10.80;7.00;;;5.10;99.90;;;;;;5044745;28;20052;-72
2023/03/09 10:43:38;;;;;;;12.52;7.53;;;5.10;99.90;;;;;;5030279;28;20041;-72
2023/03/09 10:46:11;;;;;;;12.67;7.60;;;5.10;99.90;;;;;;5030038;28;20387;-72
2023/03/09 10:48:40;;;;;;;10.23;6.78;;;5.10;99.90;;;;;;5021168;28;20445;-72
2023/03/09 10:51:24;;;;;;;9.35;6.85;;;5.20;99.90;;;;;;4994745;28;20037;-72
2023/03/09 10:53:51;;;;;;;11.68;7.07;;;5.20;99.90;;;;;;5015920;28;20049;-72
2023/03/09 10:56:41;;;;;;;10.95;7.22;;;5.20;99.90;;;;;;4990749;28;20029;-72
2023/03/09 10:59:14;;;;;;;12.00;7.75;;;5.30;99.90;;;;;;5030959;28;20038;-72
2023/03/09 11:01:43;;;;;;;12.18;7.20;;;5.30;99.90;;;;;;5042888;28;20041;-72
2023/03/09 11:04:26;;;;;;;11.38;8.07;;;5.20;99.90;;;;;;5034256;28;20392;-72
2023/03/09 11:06:53;;;;;;;10.25;7.43;;;5.20;99.90;;;;;;5027231;28;20104;-72
2023/03/09 11:09:41;;;;;;;9.90;7.30;;;5.30;99.90;;;;;;5028554;28;20045;-72
2023/03/09 11:12:25;;;;;;;9.25;6.95;;;5.30;99.90;;;;;;5013479;28;20065;-72
2023/03/09 11:14:55;;;;;;;10.38;7.13;;;5.30;99.90;;;;;;5039186;28;20049;-72
2023/03/09 11:17:26;;;;;;;10.95;7.25;;;5.40;99.90;;;;;;5030257;28;20386;-72
2023/03/09 11:20:15;;;;;;;11.38;7.50;;;5.50;99.90;;;;;;5017331;28;20099;-72
2023/03/09 11:22:52;;;;;;;10.27;7.38;;;5.50;99.90;;;;;;5042322;28;20383;-72
2023/03/09 11:25:30;;;;;;;12.00;7.85;;;5.50;99.90;;;;;;5036237;28;20497;-72
2023/03/09 11:28:21;;;;;;;9.50;7.25;;;5.40;99.90;;;;;;5034532;28;20049;-72
2023/03/09 11:30:51;;;;;;;11.13;7.50;;;5.40;99.90;;;;;;5006827;28;20044;-72
2023/03/09 11:33:19;;;;;;;11.23;7.63;;;5.40;99.90;;;;;;5047052;28;20085;-72
2023/03/09 11:35:48;;;;;;;11.23;7.25;;;5.40;99.90;;;;;;4993429;28;20045;-72
2023/03/09 11:38:15;;;;;;;11.68;7.63;;;5.30;99.90;;;;;;5038170;28;20037;-72
2023/03/09 11:40:43;;;;;;;9.25;6.97;;;5.30;99.90;;;;;;5019434;28;20030;-72
2023/03/09 11:43:22;;;;;;;9.75;6.63;;;5.20;99.90;;;;;;5016760;28;20101;-72
2023/03/09 11:45:50;;;;;;;10.95;7.13;;;5.20;99.90;;;;;;5009945;28;20034;-72
2023/03/09 11:48:28;;;;;;;10.10;5.88;;;5.20;99.90;;;;;;5002564;28;20049;-72
2023/03/09 11:51:09;;;;;;;8.25;6.18;;;5.30;99.90;;;;;;5020438;28;20127;-72
2023/03/09 11:53:43;;;;;;;10.35;7.00;;;5.30;99.90;;;;;;5013212;28;20048;-72
2023/03/09 11:56:12;;;;;;;8.95;6.47;;;5.40;99.90;;;;;;5015813;28;20517;-72
2023/03/09 11:58:42;;;;;;;9.20;6.40;;;5.50;99.90;;;;;;5032721;28;20048;-72
2023/03/09 12:01:50;;;;;;;8.52;6.13;;;5.50;99.90;;;;;;5024016;28;20077;-73
2023/03/09 12:04:16;;;;;;;9.50;6.10;;;5.60;99.90;;;;;;5020762;28;20057;-73
2023/03/09 12:07:11;;;;;;;8.70;5.72;;;5.70;99.90;;;;;;4999818;28;20084;-72
2023/03/09 12:09:51;;;;;;;9.90;6.63;;;5.80;99.90;;;;;;4978213;28;20052;-72
2023/03/09 12:12:36;;;;;;;10.27;6.15;;;5.80;99.90;;;;;;5024552;28;20058;-72
2023/03/09 12:15:25;;;;;;;8.63;6.18;;;5.90;99.90;;;;;;5023908;28;20551;-72
2023/03/09 12:17:58;;;;;;;9.43;5.68;;;6.00;99.90;;;;;;5039555;28;20060;-73
2023/03/09 12:20:40;;;;;;;9.60;6.38;;;6.10;99.90;;;;;;5024472;28;20126;-74
2023/03/09 12:23:35;;;;;;;7.95;5.63;;;6.10;99.90;;;;;;5007870;28;20054;-74
2023/03/09 12:26:14;;;;;;;7.43;5.22;;;6.20;99.90;;;;;;5007881;28;20041;-73
2023/03/09 12:28:40;;;;;;;9.57;5.45;;;6.30;99.90;;;;;;5035648;28;20065;-73
2023/03/09 12:31:35;;;;;;;7.27;5.70;;;6.30;99.90;;;;;;5007731;28;20502;-72
2023/03/09 12:34:22;;;;;;;9.50;6.28;;;6.20;99.90;;;;;;5022775;28;20276;-72
2023/03/09 12:37:35;;;;;;;7.93;5.85;;;6.20;99.90;;;;;;5023378;28;20045;-73
2023/03/09 12:40:24;;;;;;;7.70;5.72;;;6.10;99.90;;;;;;5040251;28;20045;-72
2023/03/09 12:43:14;;;;;;;7.60;5.80;;;6.10;99.90;;;;;;5012220;28;20050;-73
2023/03/09 12:45:41;;;;;;;8.32;5.75;;;6.00;99.90;;;;;;5034403;28;20101;-73
2023/03/09 12:48:07;;;;;;;9.18;6.10;;;6.00;99.90;;;;;;4981298;28;20038;-73
2023/03/09 12:50:42;;;;;;;8.00;5.80;;;6.00;99.90;;;;;;5022939;28;20069;-73
2023/03/09 12:53:15;;;;;;;7.68;5.85;;;6.00;99.90;;;;;;5002196;28;20045;-73